Time;durP1;ratioP1;P1;durP2;ratioP2;P2;SDS_P1;SDS_P2;PMS_P1;PMS_P2;Temp;Humidity;BMP_temperature;BMP_pressure;BME280_temperature;BME280_humidity;BME280_pressure;Samples;Min_cycle;Max_cycle;Signal;HPM_P1;HPM_P2
2023/09/25 00:02:27;;;;;;;8.23;3.13;;;17.20;99.90;;;;;;5033083;28;20128;-57
2023/09/25 00:04:53;;;;;;;7.85;3.45;;;17.20;99.90;;;;;;5027376;28;20100;-57
2023/09/25 00:07:20;;;;;;;11.80;3.53;;;17.20;99.90;;;;;;5030092;28;20396;-57
2023/09/25 00:09:47;;;;;;;8.57;3.38;;;17.30;99.90;;;;;;5027641;28;20429;-53
2023/09/25 00:12:14;;;;;;;9.15;3.33;;;17.30;99.90;;;;;;5029711;28;20037;-54
2023/09/25 00:14:41;;;;;;;8.32;3.20;;;17.30;99.90;;;;;;5031534;28;20049;-52
2023/09/25 00:17:07;;;;;;;12.10;3.70;;;17.30;99.90;;;;;;5031995;28;20053;-57
2023/09/25 00:19:34;;;;;;;11.00;3.22;;;17.40;99.90;;;;;;5031594;28;20148;-58
2023/09/25 00:22:01;;;;;;;7.63;3.25;;;17.40;99.90;;;;;;5031516;28;20045;-54
2023/09/25 00:24:28;;;;;;;12.75;3.50;;;17.40;99.90;;;;;;5034796;28;20045;-53
2023/09/25 00:26:54;;;;;;;9.50;3.70;;;17.50;99.90;;;;;;5032617;28;20041;-59
2023/09/25 00:29:21;;;;;;;10.30;3.35;;;17.50;99.90;;;;;;5031811;28;20034;-57
2023/09/25 00:31:48;;;;;;;8.07;3.28;;;17.50;99.90;;;;;;5032587;28;20045;-50
2023/09/25 00:34:15;;;;;;;11.73;3.38;;;17.50;99.90;;;;;;5031506;28;20044;-56
2023/09/25 00:36:44;;;;;;;9.52;3.40;;;17.50;99.90;;;;;;5032262;28;20049;-53
2023/09/25 00:39:10;;;;;;;9.95;3.38;;;17.60;99.90;;;;;;5032781;28;20045;-53
2023/09/25 00:41:37;;;;;;;10.10;3.53;;;17.60;99.90;;;;;;5031682;28;20088;-55
2023/09/25 00:44:05;;;;;;;10.07;3.28;;;17.60;99.90;;;;;;5035540;28;20049;-57
2023/09/25 00:46:32;;;;;;;8.27;2.92;;;17.60;99.90;;;;;;5036627;28;20159;-55
2023/09/25 00:48:59;;;;;;;9.35;3.38;;;17.60;99.90;;;;;;5036717;28;20045;-55
2023/09/25 00:51:26;;;;;;;10.52;3.42;;;17.60;99.90;;;;;;5034999;28;20069;-55
2023/09/25 00:53:52;;;;;;;13.43;3.58;;;17.60;99.90;;;;;;5036764;28;20076;-53
2023/09/25 00:56:19;;;;;;;8.20;3.25;;;17.60;99.90;;;;;;5035715;28;20049;-52
2023/09/25 00:58:47;;;;;;;10.43;3.17;;;17.60;99.90;;;;;;5035362;28;20156;-54
2023/09/25 01:01:14;;;;;;;7.47;3.10;;;17.60;99.90;;;;;;5036150;28;20095;-51
2023/09/25 01:03:41;;;;;;;12.30;3.33;;;17.60;99.90;;;;;;5034255;28;20045;-52
2023/09/25 01:06:08;;;;;;;9.77;3.30;;;17.60;99.90;;;;;;5036115;28;20088;-56
2023/09/25 01:08:34;;;;;;;10.85;3.47;;;17.50;99.90;;;;;;5036499;28;20084;-54
2023/09/25 01:11:02;;;;;;;8.98;3.20;;;17.50;99.90;;;;;;5036346;28;20136;-55
2023/09/25 01:13:30;;;;;;;6.15;3.05;;;17.40;99.90;;;;;;5036101;28;20100;-57
2023/09/25 01:15:57;;;;;;;10.00;3.60;;;17.40;99.90;;;;;;5034661;28;20118;-57
2023/09/25 01:18:24;;;;;;;10.63;4.13;;;17.40;99.90;;;;;;5034562;28;20481;-56
2023/09/25 01:20:51;;;;;;;8.77;3.05;;;17.40;99.90;;;;;;5035808;28;20042;-54
2023/09/25 01:23:18;;;;;;;10.20;3.22;;;17.30;99.90;;;;;;5036014;28;20048;-58
2023/09/25 01:25:45;;;;;;;8.98;3.25;;;17.30;99.90;;;;;;5036131;28;20104;-54
2023/09/25 01:28:13;;;;;;;13.27;3.78;;;17.30;99.90;;;;;;5035767;28;20033;-51
2023/09/25 01:30:40;;;;;;;9.80;3.30;;;17.30;99.90;;;;;;5035767;28;20045;-57
2023/09/25 01:33:07;;;;;;;11.43;3.35;;;17.20;99.90;;;;;;5034512;28;20045;-53
2023/09/25 01:35:34;;;;;;;11.95;3.90;;;17.20;99.90;;;;;;5034347;28;20076;-56
2023/09/25 01:38:04;;;;;;;10.15;3.42;;;17.20;99.90;;;;;;5034336;28;20045;-55
2023/09/25 01:40:31;;;;;;;11.25;3.80;;;17.20;99.90;;;;;;5035789;28;20112;-53
2023/09/25 01:42:58;;;;;;;10.68;3.83;;;17.20;99.90;;;;;;5035263;28;20099;-52
2023/09/25 01:45:24;;;;;;;16.70;3.85;;;17.10;99.90;;;;;;5035477;28;20037;-50
2023/09/25 01:47:51;;;;;;;10.93;3.65;;;17.10;99.90;;;;;;5034019;28;20065;-50
2023/09/25 01:50:20;;;;;;;13.13;3.95;;;17.10;99.90;;;;;;5035516;28;20436;-55
2023/09/25 01:52:49;;;;;;;16.33;3.97;;;17.10;99.90;;;;;;5035410;28;20038;-54
2023/09/25 01:55:16;;;;;;;10.32;3.42;;;17.10;99.90;;;;;;5033755;28;20045;-56
2023/09/25 01:57:43;;;;;;;11.00;4.10;;;17.10;99.90;;;;;;5034329;28;20439;-55
2023/09/25 02:00:10;;;;;;;13.57;4.07;;;17.10;99.90;;;;;;5033707;28;20053;-56
2023/09/25 02:02:43;;;;;;;13.35;3.50;;;17.10;99.90;;;;;;5033995;28;20048;-49
2023/09/25 02:05:10;;;;;;;12.55;3.60;;;17.10;99.90;;;;;;5033771;28;20055;-53
2023/09/25 02:07:37;;;;;;;9.32;3.45;;;17.00;99.90;;;;;;5033585;28;20443;-57
2023/09/25 02:10:04;;;;;;;9.00;3.60;;;17.10;99.90;;;;;;5033957;28;20073;-53
2023/09/25 02:12:31;;;;;;;10.85;3.75;;;17.00;99.90;;;;;;5033781;28;20041;-53
2023/09/25 02:14:59;;;;;;;12.27;3.30;;;17.00;99.90;;;;;;5026371;28;20053;-54
2023/09/25 02:17:29;;;;;;;13.77;3.58;;;17.00;99.90;;;;;;5033621;28;20456;-54
2023/09/25 02:19:58;;;;;;;10.93;3.85;;;17.00;99.90;;;;;;5033613;28;20130;-54
2023/09/25 02:22:25;;;;;;;11.63;3.60;;;17.00;99.90;;;;;;5033602;28;20074;-57
2023/09/25 02:24:52;;;;;;;10.25;3.40;;;17.00;99.90;;;;;;5035031;28;20125;-54
2023/09/25 02:27:19;;;;;;;12.70;3.85;;;17.00;99.90;;;;;;5034462;28;20041;-52
2023/09/25 02:29:45;;;;;;;12.48;3.78;;;17.00;99.90;;;;;;5034560;28;20046;-57
2023/09/25 02:32:12;;;;;;;9.48;3.40;;;17.00;99.90;;;;;;5033476;28;20038;-53
2023/09/25 02:34:39;;;;;;;13.40;3.65;;;17.00;99.90;;;;;;5034901;28;20047;-54
2023/09/25 02:37:07;;;;;;;15.27;3.95;;;17.00;99.90;;;;;;5033126;28;20132;-54
2023/09/25 02:39:34;;;;;;;11.98;3.00;;;17.00;99.90;;;;;;5033928;28;20045;-51
2023/09/25 02:42:01;;;;;;;13.82;3.80;;;17.00;99.90;;;;;;5033095;28;20063;-52
2023/09/25 02:44:28;;;;;;;10.63;3.85;;;17.00;99.90;;;;;;5034390;28;20159;-53
2023/09/25 02:46:54;;;;;;;13.18;4.00;;;17.10;99.90;;;;;;5034010;28;20053;-55
2023/09/25 02:49:21;;;;;;;12.93;4.00;;;17.00;99.90;;;;;;5034262;28;20469;-56
2023/09/25 02:51:48;;;;;;;12.45;3.55;;;17.00;99.90;;;;;;5016347;28;20042;-57
2023/09/25 02:54:15;;;;;;;11.73;3.35;;;17.00;99.90;;;;;;5034077;28;20116;-54
2023/09/25 02:56:42;;;;;;;13.15;3.78;;;17.00;99.90;;;;;;5032055;28;20061;-55
2023/09/25 02:59:09;;;;;;;10.30;3.78;;;17.00;99.90;;;;;;5034105;28;20367;-54
2023/09/25 03:01:35;;;;;;;12.07;3.58;;;17.00;99.90;;;;;;5034184;28;20369;-52
2023/09/25 03:04:03;;;;;;;12.02;3.85;;;16.90;99.90;;;;;;5034032;28;20087;-55
2023/09/25 03:06:30;;;;;;;12.10;3.58;;;16.90;99.90;;;;;;5032238;28;20072;-50
2023/09/25 03:08:57;;;;;;;12.68;3.90;;;16.90;99.90;;;;;;5033705;28;20033;-51
2023/09/25 03:11:24;;;;;;;10.40;3.90;;;16.90;99.90;;;;;;5033790;28;20045;-53
2023/09/25 03:13:50;;;;;;;14.95;3.63;;;16.80;99.90;;;;;;5034052;28;20378;-50
2023/09/25 03:16:17;;;;;;;14.40;4.10;;;16.80;99.90;;;;;;5034079;28;20038;-51
2023/09/25 03:18:44;;;;;;;10.63;3.80;;;16.80;99.90;;;;;;5033627;28;20128;-55
2023/09/25 03:21:11;;;;;;;9.80;3.50;;;16.70;99.90;;;;;;5033798;28;20462;-53
2023/09/25 03:23:38;;;;;;;8.82;3.50;;;16.70;99.90;;;;;;5033550;28;20042;-54
2023/09/25 03:26:05;;;;;;;13.57;3.90;;;16.70;99.90;;;;;;5032365;28;20060;-51
2023/09/25 03:28:31;;;;;;;8.50;3.33;;;16.70;99.90;;;;;;5033319;28;20098;-53
2023/09/25 03:30:58;;;;;;;11.32;3.17;;;16.70;99.90;;;;;;5032157;28;20137;-51
2023/09/25 03:33:27;;;;;;;8.38;2.65;;;16.70;99.90;;;;;;5032377;28;20527;-53
2023/09/25 03:35:54;;;;;;;9.80;3.65;;;16.80;99.90;;;;;;5033301;28;20037;-55
2023/09/25 03:38:21;;;;;;;8.93;3.33;;;16.80;99.90;;;;;;5033209;28;20088;-56
2023/09/25 03:40:48;;;;;;;8.05;2.47;;;16.80;99.90;;;;;;5033245;28;20052;-49
2023/09/25 03:43:14;;;;;;;7.13;2.88;;;16.80;99.90;;;;;;5031992;28;20132;-57
2023/09/25 03:45:41;;;;;;;7.03;2.90;;;16.90;99.90;;;;;;5033457;28;20054;-56
2023/09/25 03:48:08;;;;;;;7.35;2.92;;;16.90;99.90;;;;;;5033355;28;20116;-54
2023/09/25 03:50:35;;;;;;;7.90;2.70;;;16.90;99.90;;;;;;5033407;28;20049;-54
2023/09/25 03:53:02;;;;;;;10.15;3.03;;;16.90;99.90;;;;;;5033301;28;20036;-56
2023/09/25 03:55:29;;;;;;;9.27;2.80;;;17.00;99.90;;;;;;5033483;28;20042;-54
2023/09/25 03:57:56;;;;;;;7.47;2.90;;;17.00;99.90;;;;;;5024489;28;20153;-55
2023/09/25 04:00:23;;;;;;;7.28;2.70;;;17.00;99.90;;;;;;5033017;28;20041;-54
2023/09/25 04:02:50;;;;;;;7.78;2.95;;;17.00;99.90;;;;;;5033367;28;20042;-56
2023/09/25 04:05:17;;;;;;;8.77;2.95;;;17.00;99.90;;;;;;5033316;28;20049;-53
2023/09/25 04:07:43;;;;;;;10.32;2.83;;;17.00;99.90;;;;;;5033028;28;20045;-55
2023/09/25 04:10:10;;;;;;;11.63;3.55;;;17.00;99.90;;;;;;5032950;28;20091;-53
2023/09/25 04:12:38;;;;;;;8.65;2.75;;;17.00;99.90;;;;;;5031587;28;20045;-52
2023/09/25 04:15:10;;;;;;;11.82;3.35;;;17.00;99.90;;;;;;5033125;28;20107;-53
2023/09/25 04:17:38;;;;;;;11.75;3.05;;;17.10;99.90;;;;;;5031999;28;20511;-54
2023/09/25 04:20:16;;;;;;;10.27;3.42;;;17.00;99.90;;;;;;5032804;28;20139;-55
2023/09/25 04:22:43;;;;;;;7.35;2.80;;;17.00;99.90;;;;;;5032788;28;20102;-56
2023/09/25 04:25:10;;;;;;;9.27;2.85;;;17.00;99.90;;;;;;5032733;28;20049;-52
2023/09/25 04:27:38;;;;;;;11.50;3.00;;;17.00;99.90;;;;;;5032440;28;20042;-55
2023/09/25 04:30:08;;;;;;;9.85;3.20;;;17.00;99.90;;;;;;5033157;28;20080;-51
2023/09/25 04:32:36;;;;;;;14.50;3.55;;;17.00;99.90;;;;;;5032676;28;20034;-54
2023/09/25 04:35:04;;;;;;;13.63;4.20;;;17.00;99.90;;;;;;5032879;28;20041;-53
2023/09/25 04:37:31;;;;;;;12.57;3.90;;;17.00;99.90;;;;;;5032320;28;20057;-55
2023/09/25 04:39:57;;;;;;;11.35;3.40;;;17.00;99.90;;;;;;5032758;28;20045;-54
2023/09/25 04:42:24;;;;;;;11.07;3.55;;;17.00;99.90;;;;;;5032633;28;20069;-51
2023/09/25 04:44:51;;;;;;;17.67;4.05;;;16.90;99.90;;;;;;5031436;28;20408;-55
2023/09/25 04:47:18;;;;;;;16.73;4.13;;;16.90;99.90;;;;;;5032265;28;20045;-54
2023/09/25 04:49:44;;;;;;;17.05;3.42;;;16.90;99.90;;;;;;5032707;28;20432;-54
2023/09/25 04:52:11;;;;;;;14.07;3.85;;;16.90;99.90;;;;;;5032530;28;20055;-53
2023/09/25 04:54:38;;;;;;;14.02;3.47;;;16.80;99.90;;;;;;5032088;28;20496;-52
2023/09/25 04:57:06;;;;;;;14.95;3.88;;;16.80;99.90;;;;;;5032595;28;20500;-52
2023/09/25 04:59:33;;;;;;;15.65;4.22;;;16.80;99.90;;;;;;5032525;28;20052;-52
2023/09/25 05:02:00;;;;;;;11.98;3.58;;;16.70;99.90;;;;;;5031151;28;20478;-55
2023/09/25 05:04:26;;;;;;;14.10;3.88;;;16.70;99.90;;;;;;5032392;28;20106;-55
2023/09/25 05:06:53;;;;;;;17.05;3.90;;;16.70;99.90;;;;;;5032083;28;20136;-54
2023/09/25 05:09:22;;;;;;;12.07;4.13;;;16.60;99.90;;;;;;5032386;28;20595;-48
2023/09/25 05:11:49;;;;;;;13.88;3.97;;;16.60;99.90;;;;;;5032365;28;20034;-54
2023/09/25 05:14:16;;;;;;;13.55;4.00;;;16.60;99.90;;;;;;5032182;28;20037;-54
2023/09/25 05:16:42;;;;;;;11.07;3.90;;;16.50;99.90;;;;;;5031373;28;20045;-54
2023/09/25 05:19:09;;;;;;;15.27;3.83;;;16.50;99.90;;;;;;5032372;28;20049;-50
2023/09/25 05:21:36;;;;;;;12.07;3.38;;;16.40;99.90;;;;;;5032064;28;20064;-54
2023/09/25 05:24:03;;;;;;;14.15;4.38;;;16.40;99.90;;;;;;5032302;28;20485;-55
2023/09/25 05:26:30;;;;;;;19.63;4.15;;;16.30;99.90;;;;;;5032517;28;20053;-55
2023/09/25 05:28:56;;;;;;;14.35;3.85;;;16.30;99.90;;;;;;5033768;28;20082;-50
2023/09/25 05:31:25;;;;;;;10.70;3.88;;;16.30;99.90;;;;;;5035788;28;20049;-52
2023/09/25 05:33:52;;;;;;;15.23;4.13;;;16.20;99.90;;;;;;5035644;28;20457;-54
2023/09/25 05:36:20;;;;;;;14.13;4.05;;;16.20;99.90;;;;;;5035530;28;20050;-52
2023/09/25 05:38:47;;;;;;;12.13;3.88;;;16.20;99.90;;;;;;5035587;28;20095;-54
2023/09/25 05:41:14;;;;;;;19.10;3.83;;;16.20;99.90;;;;;;5035423;28;20046;-51
2023/09/25 05:43:41;;;;;;;10.27;3.63;;;16.20;99.90;;;;;;5035655;28;20052;-49
2023/09/25 05:46:08;;;;;;;14.15;4.20;;;16.10;99.90;;;;;;5035799;28;20045;-53
2023/09/25 05:48:34;;;;;;;15.30;4.03;;;16.20;99.90;;;;;;5035366;28;20472;-56
2023/09/25 05:51:02;;;;;;;11.98;3.80;;;16.10;99.90;;;;;;5034014;28;20066;-51
2023/09/25 05:53:29;;;;;;;13.23;3.70;;;16.00;99.90;;;;;;5035662;28;20089;-50
2023/09/25 05:55:56;;;;;;;16.80;4.25;;;16.10;99.90;;;;;;5035287;28;20049;-52
2023/09/25 05:58:23;;;;;;;14.27;4.10;;;16.00;99.90;;;;;;5034416;28;20052;-52
2023/09/25 06:00:50;;;;;;;12.75;3.75;;;16.00;99.90;;;;;;5035248;28;20460;-55
2023/09/25 06:03:17;;;;;;;10.20;3.45;;;15.90;99.90;;;;;;5034275;28;20481;-51
2023/09/25 06:05:44;;;;;;;12.68;3.72;;;15.90;99.90;;;;;;5035138;28;20041;-50
2023/09/25 06:08:10;;;;;;;16.95;4.38;;;15.80;99.90;;;;;;5033609;28;20033;-56
2023/09/25 06:10:37;;;;;;;13.82;4.00;;;15.80;99.90;;;;;;5034777;28;20045;-51
2023/09/25 06:13:04;;;;;;;13.07;3.97;;;15.80;99.90;;;;;;5035382;28;20048;-50
2023/09/25 06:15:32;;;;;;;11.77;3.58;;;15.80;99.90;;;;;;5034925;28;20138;-55
2023/09/25 06:17:59;;;;;;;14.20;4.07;;;15.80;99.90;;;;;;5034950;28;20125;-54
2023/09/25 06:20:27;;;;;;;16.60;3.90;;;15.80;99.90;;;;;;5034739;28;20132;-55
2023/09/25 06:23:00;;;;;;;14.70;3.50;;;15.80;99.90;;;;;;5034657;28;20481;-52
2023/09/25 06:25:29;;;;;;;17.25;4.13;;;15.70;99.90;;;;;;5034876;28;20129;-50
2023/09/25 06:27:56;;;;;;;16.05;3.95;;;15.70;99.90;;;;;;5034558;28;20044;-52
2023/09/25 06:30:24;;;;;;;12.75;3.50;;;15.70;99.90;;;;;;5034716;28;20030;-54
2023/09/25 06:32:51;;;;;;;21.02;4.22;;;15.70;99.90;;;;;;5034667;28;20136;-49
2023/09/25 06:35:18;;;;;;;14.95;3.90;;;15.70;99.90;;;;;;5034945;28;20037;-52
2023/09/25 06:37:45;;;;;;;19.02;3.95;;;15.80;99.90;;;;;;5034357;28;20045;-51
2023/09/25 06:40:15;;;;;;;15.40;3.80;;;15.80;99.90;;;;;;5033624;28;20037;-55
2023/09/25 06:42:43;;;;;;;13.80;3.78;;;15.80;99.90;;;;;;5034628;28;20069;-51
2023/09/25 06:45:10;;;;;;;12.48;3.78;;;15.90;99.90;;;;;;5034435;28;20497;-54
2023/09/25 06:47:37;;;;;;;15.00;3.72;;;15.80;99.90;;;;;;5033322;28;20107;-51
2023/09/25 06:50:04;;;;;;;14.45;3.95;;;15.90;99.90;;;;;;5034115;28;20041;-50
2023/09/25 06:52:31;;;;;;;11.52;3.53;;;15.90;99.90;;;;;;5034510;28;20116;-50
2023/09/25 06:54:57;;;;;;;12.88;4.10;;;15.90;99.90;;;;;;5034455;28;20045;-52
2023/09/25 06:57:25;;;;;;;17.10;3.78;;;15.90;99.90;;;;;;5033408;28;20045;-52
2023/09/25 06:59:52;;;;;;;14.95;3.95;;;16.00;99.90;;;;;;5034380;28;20131;-49
2023/09/25 07:02:20;;;;;;;14.80;4.03;;;16.00;99.90;;;;;;5034015;28;20045;-54
2023/09/25 07:04:47;;;;;;;11.80;3.40;;;16.00;99.90;;;;;;5034254;28;20069;-55
2023/09/25 07:07:14;;;;;;;16.48;4.18;;;16.00;99.90;;;;;;5033837;28;20045;-52
2023/09/25 07:09:41;;;;;;;15.38;3.75;;;16.10;99.90;;;;;;5034048;28;20134;-52
2023/09/25 07:12:08;;;;;;;20.15;3.80;;;16.10;99.90;;;;;;5033839;28;20139;-52
2023/09/25 07:14:35;;;;;;;13.98;3.53;;;16.20;99.90;;;;;;5033742;28;20041;-51
2023/09/25 07:17:02;;;;;;;16.95;4.10;;;16.20;99.90;;;;;;5034061;28;20069;-53
2023/09/25 07:19:29;;;;;;;17.25;4.22;;;16.20;99.90;;;;;;5032579;28;20084;-53
2023/09/25 07:21:56;;;;;;;17.23;3.78;;;16.20;99.90;;;;;;5032598;28;20064;-49
2023/09/25 07:24:22;;;;;;;15.52;4.35;;;16.20;99.90;;;;;;5033806;28;20049;-51
2023/09/25 07:26:51;;;;;;;16.63;4.40;;;16.30;99.90;;;;;;5033706;28;20076;-58
2023/09/25 07:29:19;;;;;;;20.73;4.00;;;16.30;99.90;;;;;;5033817;28;20041;-57
2023/09/25 07:32:06;;;;;;;16.70;4.03;;;16.30;99.90;;;;;;5033864;28;20037;-55
2023/09/25 07:34:32;;;;;;;17.73;3.97;;;16.30;99.90;;;;;;5033868;28;20521;-56
2023/09/25 07:37:00;;;;;;;15.38;3.97;;;16.40;99.90;;;;;;5033754;28;20091;-58
2023/09/25 07:39:28;;;;;;;20.38;5.40;;;16.40;99.90;;;;;;5032472;28;20045;-58
2023/09/25 07:41:56;;;;;;;15.85;4.35;;;16.40;99.90;;;;;;5033692;28;20044;-56
2023/09/25 07:44:26;;;;;;;17.60;4.15;;;16.50;99.90;;;;;;5033387;28;20116;-52
2023/09/25 07:46:53;;;;;;;18.80;4.13;;;16.50;99.90;;;;;;5033269;28;20099;-57
2023/09/25 07:49:20;;;;;;;12.40;3.65;;;16.50;99.90;;;;;;5033330;28;20405;-57
2023/09/25 07:51:48;;;;;;;13.32;3.90;;;16.60;99.90;;;;;;5033224;28;20041;-53
2023/09/25 07:54:15;;;;;;;15.77;3.72;;;16.60;99.90;;;;;;5032529;28;20040;-57
2023/09/25 07:56:42;;;;;;;18.80;4.70;;;16.60;99.90;;;;;;5033189;28;20045;-55
2023/09/25 07:59:10;;;;;;;16.23;4.10;;;16.70;99.90;;;;;;5032501;28;20503;-58
2023/09/25 08:01:39;;;;;;;17.33;4.22;;;16.70;99.90;;;;;;5033050;28;20143;-54
2023/09/25 08:04:06;;;;;;;18.60;4.30;;;16.70;99.90;;;;;;5027114;28;20448;-56
2023/09/25 08:06:33;;;;;;;17.80;4.18;;;16.80;99.90;;;;;;5032686;28;20069;-57
2023/09/25 08:09:00;;;;;;;18.98;3.83;;;16.80;99.90;;;;;;5032827;28;20038;-51
2023/09/25 08:11:27;;;;;;;16.13;4.15;;;16.90;99.90;;;;;;5033000;28;20065;-54
2023/09/25 08:13:54;;;;;;;16.02;4.43;;;17.00;99.90;;;;;;5033084;28;20041;-55
2023/09/25 08:16:23;;;;;;;18.30;4.20;;;17.00;99.90;;;;;;5031925;28;20037;-58
2023/09/25 08:18:50;;;;;;;17.20;4.53;;;17.00;99.90;;;;;;5026567;28;20045;-55
2023/09/25 08:21:17;;;;;;;16.13;4.03;;;17.10;99.90;;;;;;5026352;28;20051;-56
2023/09/25 08:23:44;;;;;;;15.32;4.35;;;17.10;99.90;;;;;;5026395;28;20049;-53
2023/09/25 08:26:12;;;;;;;20.33;4.53;;;17.10;99.90;;;;;;5033073;28;20056;-57
2023/09/25 08:28:38;;;;;;;16.98;4.18;;;17.10;99.90;;;;;;5032695;28;20048;-56
2023/09/25 08:31:06;;;;;;;16.13;3.80;;;17.10;99.90;;;;;;5032846;28;20095;-50
2023/09/25 08:33:33;;;;;;;16.17;4.43;;;17.10;99.90;;;;;;5032923;28;20128;-52
2023/09/25 08:36:00;;;;;;;19.13;4.60;;;17.10;99.90;;;;;;5032676;28;20037;-58
2023/09/25 08:38:27;;;;;;;15.75;3.92;;;17.20;99.90;;;;;;5032815;28;20456;-54
2023/09/25 08:40:53;;;;;;;17.58;4.15;;;17.20;99.90;;;;;;5032682;28;20060;-53
2023/09/25 08:43:21;;;;;;;13.60;4.43;;;17.20;99.90;;;;;;5032785;28;20038;-55
2023/09/25 08:45:50;;;;;;;16.13;4.32;;;17.30;99.90;;;;;;5032742;28;20034;-55
2023/09/25 08:48:17;;;;;;;12.82;3.80;;;17.30;99.90;;;;;;5032632;28;20038;-53
2023/09/25 08:50:44;;;;;;;19.75;4.32;;;17.30;99.90;;;;;;5032305;28;20049;-57
2023/09/25 08:53:11;;;;;;;16.20;4.22;;;17.40;99.90;;;;;;5033114;28;20096;-55
2023/09/25 08:55:38;;;;;;;15.15;4.40;;;17.40;99.90;;;;;;5031743;28;20048;-52
2023/09/25 08:58:04;;;;;;;20.50;3.78;;;17.50;99.90;;;;;;5032956;28;20130;-56
2023/09/25 09:00:32;;;;;;;17.67;4.45;;;17.50;99.90;;;;;;5032491;28;20046;-57
2023/09/25 09:02:59;;;;;;;13.80;3.45;;;17.60;99.90;;;;;;5033063;28;20469;-56
2023/09/25 09:05:26;;;;;;;18.30;4.38;;;17.60;99.90;;;;;;5035370;28;20099;-51
2023/09/25 09:07:53;;;;;;;12.85;3.97;;;17.70;99.90;;;;;;5036551;28;20053;-53
2023/09/25 09:10:20;;;;;;;14.70;3.78;;;17.80;99.90;;;;;;5036369;28;20038;-58
2023/09/25 09:12:47;;;;;;;17.52;4.13;;;17.80;99.90;;;;;;5036227;28;20120;-53
2023/09/25 09:15:28;;;;;;;21.25;4.18;;;17.90;99.90;;;;;;5035449;28;20452;-52
2023/09/25 09:17:55;;;;;;;16.23;4.40;;;17.90;99.90;;;;;;5035700;28;20204;-58
2023/09/25 09:20:22;;;;;;;15.25;3.97;;;18.00;99.90;;;;;;5035992;28;20049;-57
2023/09/25 09:22:49;;;;;;;14.73;3.92;;;18.10;99.90;;;;;;5036424;28;20046;-56
2023/09/25 09:25:16;;;;;;;15.07;3.95;;;18.10;99.90;;;;;;5035789;28;20049;-52
2023/09/25 09:27:42;;;;;;;18.70;3.85;;;18.10;99.90;;;;;;5035984;28;20120;-52
2023/09/25 09:30:10;;;;;;;14.35;3.72;;;18.20;99.90;;;;;;5041459;28;20041;-51
2023/09/25 09:32:39;;;;;;;17.38;4.05;;;18.20;99.90;;;;;;5035823;28;20037;-53
2023/09/25 09:35:07;;;;;;;11.95;3.85;;;18.20;99.90;;;;;;5030653;28;20103;-53
2023/09/25 09:37:35;;;;;;;12.88;3.58;;;18.20;99.90;;;;;;5035850;28;20469;-55
2023/09/25 09:40:09;;;;;;;12.82;3.47;;;18.20;99.90;;;;;;5035793;28;20516;-51
2023/09/25 09:42:36;;;;;;;13.05;3.47;;;18.20;99.90;;;;;;5035107;28;20045;-51
2023/09/25 09:45:07;;;;;;;13.80;3.67;;;18.20;99.90;;;;;;5034298;28;20048;-48
2023/09/25 09:47:34;;;;;;;10.68;3.53;;;18.20;99.90;;;;;;5034527;28;20783;-53
2023/09/25 09:50:01;;;;;;;10.50;3.20;;;18.30;99.90;;;;;;5035193;28;20042;-50
2023/09/25 09:52:28;;;;;;;11.63;3.60;;;18.30;99.90;;;;;;5034173;28;20120;-53
2023/09/25 09:54:55;;;;;;;10.57;3.40;;;18.30;99.90;;;;;;5035262;28;20045;-54
2023/09/25 09:57:22;;;;;;;12.15;3.38;;;18.40;99.90;;;;;;5034086;28;20037;-52
2023/09/25 09:59:49;;;;;;;12.35;3.17;;;18.40;99.90;;;;;;5033995;28;20065;-55
2023/09/25 10:02:15;;;;;;;11.52;3.40;;;18.50;99.90;;;;;;5035217;28;20073;-51
2023/09/25 10:04:42;;;;;;;11.50;3.22;;;18.50;99.90;;;;;;5033524;28;20043;-59
2023/09/25 10:07:09;;;;;;;11.63;3.28;;;18.50;99.90;;;;;;5034993;28;20404;-55
2023/09/25 10:09:37;;;;;;;9.75;3.28;;;18.60;99.90;;;;;;5034304;28;20042;-57
2023/09/25 10:12:04;;;;;;;15.85;3.80;;;18.70;99.90;;;;;;5035341;28;20043;-55
2023/09/25 10:14:31;;;;;;;13.43;3.28;;;18.70;99.90;;;;;;5033913;28;20100;-54
2023/09/25 10:17:01;;;;;;;11.57;3.03;;;18.80;99.90;;;;;;5034529;28;20048;-55
2023/09/25 10:19:28;;;;;;;11.27;3.13;;;18.90;99.90;;;;;;5031379;28;20045;-52
2023/09/25 10:21:55;;;;;;;11.43;3.25;;;18.90;99.90;;;;;;5034928;28;20046;-55
2023/09/25 10:24:22;;;;;;;13.80;3.63;;;18.90;99.90;;;;;;5035134;28;20046;-54
2023/09/25 10:26:48;;;;;;;11.30;3.35;;;18.90;99.90;;;;;;5034795;28;20045;-53
2023/09/25 10:29:16;;;;;;;12.70;3.00;;;19.00;99.90;;;;;;5034718;28;20049;-54
2023/09/25 10:31:43;;;;;;;9.85;2.63;;;19.00;99.90;;;;;;5034945;28;20033;-58
2023/09/25 10:34:10;;;;;;;12.43;3.42;;;19.10;99.90;;;;;;5034681;28;20047;-59
2023/09/25 10:36:37;;;;;;;9.93;3.15;;;19.20;99.90;;;;;;5034848;28;20116;-53
2023/09/25 10:39:04;;;;;;;14.98;3.20;;;19.20;99.90;;;;;;5034830;28;20045;-54
2023/09/25 10:41:31;;;;;;;10.70;3.05;;;19.30;99.90;;;;;;5034389;28;20046;-58
2023/09/25 10:43:58;;;;;;;9.32;3.47;;;19.30;99.90;;;;;;5034907;28;20392;-55
2023/09/25 10:46:25;;;;;;;9.70;2.92;;;19.40;99.90;;;;;;5034557;28;20041;-53
2023/09/25 10:48:52;;;;;;;10.73;3.13;;;19.50;99.90;;;;;;5033383;28;20038;-54
2023/09/25 10:51:20;;;;;;;7.78;2.60;;;19.50;99.90;;;;;;5034490;28;20045;-56
2023/09/25 10:53:47;;;;;;;10.15;2.65;;;19.50;99.90;;;;;;5036762;28;20045;-51
2023/09/25 10:56:15;;;;;;;9.73;2.70;;;19.50;99.90;;;;;;5034434;28;20060;-53
2023/09/25 10:58:43;;;;;;;13.38;3.05;;;19.40;99.90;;;;;;5034766;28;20092;-56
2023/09/25 11:01:10;;;;;;;9.02;3.15;;;19.50;99.90;;;;;;5033472;28;20538;-55
2023/09/25 11:03:37;;;;;;;9.18;3.22;;;19.60;99.90;;;;;;5034525;28;20075;-53
2023/09/25 11:06:04;;;;;;;8.48;2.55;;;19.60;99.90;;;;;;5032890;28;20368;-58
2023/09/25 11:08:34;;;;;;;14.25;3.22;;;19.60;99.90;;;;;;5033484;28;20037;-53
2023/09/25 11:11:01;;;;;;;9.63;2.65;;;19.70;99.90;;;;;;5033992;28;20034;-54
2023/09/25 11:13:29;;;;;;;11.02;2.88;;;19.70;99.90;;;;;;5033481;28;20045;-56
2023/09/25 11:15:56;;;;;;;7.70;2.40;;;19.80;99.90;;;;;;5033914;28;20042;-54
2023/09/25 11:18:23;;;;;;;7.97;2.80;;;19.80;99.90;;;;;;5034045;28;20037;-55
2023/09/25 11:20:51;;;;;;;9.18;2.65;;;19.90;99.90;;;;;;5033258;28;20033;-54
2023/09/25 11:23:18;;;;;;;9.32;2.53;;;19.90;99.90;;;;;;5033950;28;20432;-53
2023/09/25 11:25:48;;;;;;;10.38;2.70;;;19.90;99.90;;;;;;5032582;28;20108;-56
2023/09/25 11:28:16;;;;;;;8.68;2.80;;;19.90;99.90;;;;;;5033777;28;20084;-51
2023/09/25 11:30:46;;;;;;;9.95;2.85;;;19.90;99.90;;;;;;5031636;28;20041;-57
2023/09/25 11:33:13;;;;;;;8.90;2.55;;;20.00;99.90;;;;;;5033950;28;20068;-52
2023/09/25 11:35:41;;;;;;;10.75;2.65;;;20.00;99.90;;;;;;5033128;28;20116;-56
2023/09/25 11:38:08;;;;;;;13.23;3.03;;;20.00;99.90;;;;;;5033771;28;20052;-51
2023/09/25 11:40:35;;;;;;;10.65;2.88;;;20.10;99.90;;;;;;5033578;28;20053;-57
2023/09/25 11:43:02;;;;;;;9.25;3.13;;;20.10;99.90;;;;;;5032567;28;20049;-59
2023/09/25 11:45:30;;;;;;;10.55;2.67;;;20.10;99.90;;;;;;5033459;28;20441;-57
2023/09/25 11:47:57;;;;;;;10.25;2.70;;;20.10;99.90;;;;;;5032637;28;20120;-55
2023/09/25 11:50:25;;;;;;;9.85;2.58;;;20.10;99.90;;;;;;5033132;28;20054;-57
2023/09/25 11:52:52;;;;;;;12.07;3.47;;;20.10;99.90;;;;;;5032442;28;20042;-57
2023/09/25 11:55:19;;;;;;;12.45;3.28;;;20.10;99.90;;;;;;5027298;28;20041;-55
2023/09/25 11:57:46;;;;;;;12.15;3.00;;;20.10;99.90;;;;;;5031067;28;20559;-55
2023/09/25 12:00:12;;;;;;;9.05;3.03;;;20.10;99.90;;;;;;5033110;28;20128;-56
2023/09/25 12:02:40;;;;;;;11.55;2.85;;;20.10;99.90;;;;;;5033396;28;20045;-55
2023/09/25 12:05:08;;;;;;;9.07;3.20;;;20.20;99.90;;;;;;5030425;28;20115;-59
2023/09/25 12:07:36;;;;;;;11.25;3.13;;;20.20;99.90;;;;;;5026979;28;20473;-53
2023/09/25 12:10:03;;;;;;;8.57;3.08;;;20.30;99.90;;;;;;5029450;28;20046;-57
2023/09/25 12:12:30;;;;;;;13.63;3.40;;;20.30;99.90;;;;;;5026799;28;20064;-57
2023/09/25 12:14:58;;;;;;;12.45;3.60;;;20.40;99.90;;;;;;5028277;28;20056;-55
2023/09/25 12:17:25;;;;;;;8.25;2.78;;;20.40;99.90;;;;;;5026207;28;20050;-57
2023/09/25 12:19:52;;;;;;;9.02;3.00;;;20.40;99.90;;;;;;5031752;28;20045;-55
2023/09/25 12:22:19;;;;;;;15.15;3.42;;;20.40;99.90;;;;;;5031998;28;20054;-53
2023/09/25 12:24:46;;;;;;;10.57;3.00;;;20.40;99.90;;;;;;5031833;28;20037;-56
2023/09/25 12:27:13;;;;;;;9.20;2.85;;;20.30;98.80;;;;;;5024510;28;20034;-57
2023/09/25 12:29:40;;;;;;;11.70;2.83;;;20.30;99.90;;;;;;5031140;28;20473;-52
2023/09/25 12:32:06;;;;;;;13.43;3.13;;;20.30;99.90;;;;;;5030612;28;20058;-55
2023/09/25 12:34:33;;;;;;;10.93;3.22;;;20.40;99.90;;;;;;5033154;28;20052;-50
2023/09/25 12:37:00;;;;;;;10.57;3.00;;;20.40;99.90;;;;;;5030561;28;20033;-53
2023/09/25 12:39:27;;;;;;;13.05;3.00;;;20.50;99.90;;;;;;5035660;28;20461;-58